EGPL

Details ICAO EGPL (BEB)
Name Benbecula
Region United Kingdom
Timezone Europe/London (UTC+1.0)
Plans Departing 35
Arriving 57
Stats Elevation 19 ft / 6 m (AMSL)
Location 57.481171° -7.363001°
Runways 2
Magnetic Variation 4.248° W
Sunrise 2018-05-27 03:48:50 UTC / 2018-05-27 04:48:50 Local
Sunset 2018-05-27 21:07:16 UTC / 2018-05-27 22:07:16 Local
Advertisement - Login to hide

Runways

ID Width Length Bearing (true) Bearing (mag) Surface Threshold Offset Overrun Length
06 151 ft / 46 m 6,000 ft / 1,829 m 55.40° 59.65° Asphalt 384 ft / 117 m 0 ft / 0 m
17 151 ft / 46 m 4,218 ft / 1,286 m 167.10° 171.35° Asphalt 0 ft / 0 m 0 ft / 0 m
24 151 ft / 46 m 6,000 ft / 1,829 m 235.42° 239.67° Asphalt 0 ft / 0 m 0 ft / 0 m
35 151 ft / 46 m 4,218 ft / 1,286 m 347.10° 351.35° Asphalt 305 ft / 93 m 0 ft / 0 m

Map

Weather


0- 5 10 15 20 25 30 35+ Temperature / ° C

Clouds and Precipitation
Forecast for 2018-05-27 18:00 UTC. Updated 3 hours ago

Ground ~20,000 ft ~40,000 ft Winds

METAR

EGPL 271950Z AUTO 15006KT 9999 NCD 19/11 Q1018

TAF

Not found

Frequencies

Tower 119.20 MHz Benbecula Tower
Warning: Do not use this data for real-world aviation or navigation. No guarantee of current accuracy is given.